createdAt,value
2019-06-25T00:01:19.535Z,8.97
2019-06-25T00:03:48.642Z,7.43
2019-06-25T00:06:17.663Z,8.00
2019-06-25T00:08:46.630Z,8.30
2019-06-25T00:11:15.346Z,8.93
2019-06-25T00:13:44.159Z,8.80
2019-06-25T00:16:13.273Z,9.13
2019-06-25T00:18:42.642Z,9.60
2019-06-25T00:21:11.735Z,9.20
2019-06-25T00:23:40.842Z,8.40
2019-06-25T00:26:09.883Z,8.30
2019-06-25T00:28:38.981Z,9.73
2019-06-25T00:31:08.011Z,9.00
2019-06-25T00:33:36.610Z,8.80
2019-06-25T00:36:05.773Z,8.07
2019-06-25T00:38:34.858Z,8.73
2019-06-25T00:41:03.724Z,8.43
2019-06-25T00:43:32.745Z,8.17
2019-06-25T00:46:02.326Z,10.20
2019-06-25T00:48:31.389Z,8.90
2019-06-25T00:51:00.425Z,8.80
2019-06-25T00:53:29.570Z,8.30
2019-06-25T00:55:58.146Z,8.27
2019-06-25T00:58:27.341Z,9.90
2019-06-25T01:00:56.278Z,7.90
2019-06-25T01:03:35.714Z,8.80
2019-06-25T01:06:04.759Z,8.40
2019-06-25T01:08:34.116Z,9.03
2019-06-25T01:11:03.175Z,9.73
2019-06-25T01:13:32.138Z,8.97
2019-06-25T01:16:01.270Z,8.30
2019-06-25T01:18:30.438Z,8.47
2019-06-25T01:20:58.952Z,9.07
2019-06-25T01:23:27.794Z,10.60
2019-06-25T01:25:56.801Z,9.90
2019-06-25T01:28:25.869Z,9.23
2019-06-25T01:30:54.721Z,9.70
2019-06-25T01:33:23.807Z,9.30
2019-06-25T01:35:52.782Z,9.57
2019-06-25T01:38:21.801Z,9.53
2019-06-25T01:40:50.756Z,9.37
2019-06-25T01:43:19.297Z,9.70
2019-06-25T01:45:48.349Z,9.07
2019-06-25T01:48:17.382Z,10.57
2019-06-25T01:50:46.356Z,9.37
2019-06-25T01:53:15.324Z,9.73
2019-06-25T01:55:44.346Z,10.43
2019-06-25T01:58:13.442Z,9.13
2019-06-25T02:00:45.192Z,9.50
2019-06-25T02:03:13.070Z,9.20
2019-06-25T02:05:41.649Z,10.53
2019-06-25T02:08:10.686Z,11.33
2019-06-25T02:10:39.611Z,10.33
2019-06-25T02:13:08.688Z,8.63
2019-06-25T02:15:37.839Z,9.10
2019-06-25T02:18:06.881Z,9.50
2019-06-25T02:20:35.850Z,9.63
2019-06-25T02:23:04.923Z,8.63
2019-06-25T02:25:33.402Z,8.50
2019-06-25T02:28:02.018Z,8.57
2019-06-25T02:30:30.924Z,8.83
2019-06-25T02:32:59.931Z,9.27
2019-06-25T02:35:28.936Z,9.90
2019-06-25T02:37:58.032Z,9.93
2019-06-25T02:40:27.184Z,10.40
2019-06-25T02:42:56.419Z,9.83
2019-06-25T02:45:25.312Z,10.00
2019-06-25T02:47:53.940Z,9.10
2019-06-25T02:50:22.943Z,9.70
2019-06-25T02:52:51.926Z,10.20
2019-06-25T02:55:20.894Z,9.70
2019-06-25T02:57:49.898Z,9.43
2019-06-25T03:00:18.880Z,9.17
2019-06-25T03:02:47.916Z,9.83
2019-06-25T03:05:16.907Z,9.63
2019-06-25T03:07:45.950Z,10.03
2019-06-25T03:10:14.943Z,9.73
2019-06-25T03:12:44.125Z,9.23
2019-06-25T03:15:13.076Z,8.83
2019-06-25T03:17:42.148Z,9.20
2019-06-25T03:20:21.914Z,9.13
2019-06-25T03:22:51.088Z,8.97
2019-06-25T03:25:20.081Z,9.73
2019-06-25T03:27:48.962Z,8.77
2019-06-25T03:30:18.300Z,9.17
2019-06-25T03:32:47.321Z,9.60
2019-06-25T03:35:15.913Z,9.10
2019-06-25T03:37:44.883Z,9.63
2019-06-25T03:40:13.963Z,10.57
2019-06-25T03:42:43.279Z,11.23
2019-06-25T03:45:12.356Z,10.67
2019-06-25T03:47:41.356Z,10.17
2019-06-25T03:50:10.292Z,9.37
2019-06-25T03:52:39.253Z,9.73
2019-06-25T03:55:08.442Z,9.10
2019-06-25T03:57:36.973Z,8.27
2019-06-25T04:00:06.328Z,9.07
2019-06-25T04:02:35.452Z,8.33
2019-06-25T04:05:04.712Z,9.47
2019-06-25T04:07:33.776Z,8.57
2019-06-25T04:10:02.929Z,9.60
2019-06-25T04:12:32.046Z,10.00
2019-06-25T04:15:00.956Z,9.47
2019-06-25T04:17:29.473Z,9.57
2019-06-25T04:19:57.973Z,8.87
2019-06-25T04:22:26.983Z,8.90
2019-06-25T04:24:56.124Z,9.80
2019-06-25T04:27:25.711Z,11.40
2019-06-25T04:29:54.752Z,10.10
2019-06-25T04:32:32.674Z,9.60
2019-06-25T04:34:55.049Z,10.10
2019-06-25T04:37:24.042Z,9.10
2019-06-25T04:39:53.060Z,10.80
2019-06-25T04:42:21.522Z,9.37
2019-06-25T04:44:50.595Z,10.90
2019-06-25T04:47:19.610Z,10.30
2019-06-25T04:49:48.688Z,10.90
2019-06-25T04:52:17.652Z,9.73
2019-06-25T04:54:46.891Z,10.57
2019-06-25T04:57:16.388Z,10.60
2019-06-25T04:59:45.529Z,10.00
2019-06-25T05:02:14.186Z,10.43
2019-06-25T05:04:43.346Z,10.00
2019-06-25T05:07:12.464Z,9.20
2019-06-25T05:09:41.503Z,9.30
2019-06-25T05:12:10.575Z,9.47
2019-06-25T05:14:39.960Z,7.70
2019-06-25T05:17:08.895Z,8.90
2019-06-25T05:19:37.892Z,7.90
2019-06-25T05:22:06.831Z,8.30
2019-06-25T05:24:35.452Z,7.37
2019-06-25T05:27:04.459Z,7.90
2019-06-25T05:29:33.514Z,6.63
2019-06-25T05:32:02.656Z,7.27
2019-06-25T05:34:31.781Z,6.97
2019-06-25T05:37:05.866Z,7.30
2019-06-25T05:39:34.940Z,6.30
2019-06-25T05:42:04.071Z,5.80
2019-06-25T05:44:33.208Z,6.80
2019-06-25T05:47:03.476Z,6.43
2019-06-25T05:49:33.027Z,6.83
2019-06-25T05:52:02.064Z,7.00
2019-06-25T05:54:31.255Z,6.30
2019-06-25T05:57:00.337Z,6.07
2019-06-25T05:59:29.408Z,6.10
2019-06-25T06:01:58.591Z,6.00
2019-06-25T06:04:27.672Z,6.27
2019-06-25T06:06:56.665Z,6.70
2019-06-25T06:09:25.401Z,6.47
2019-06-25T06:11:54.543Z,6.73
2019-06-25T06:14:23.613Z,6.73
2019-06-25T06:16:52.696Z,7.00
2019-06-25T06:19:21.828Z,5.17
2019-06-25T06:21:50.760Z,5.60
2019-06-25T06:24:21.810Z,5.50
2019-06-25T06:26:49.738Z,5.70
2019-06-25T06:29:18.933Z,6.00
2019-06-25T06:31:47.964Z,4.57
2019-06-25T06:34:17.003Z,5.00
2019-06-25T06:36:45.922Z,4.70
2019-06-25T06:39:14.967Z,4.90
2019-06-25T06:41:43.953Z,5.60
2019-06-25T06:44:12.979Z,4.10
2019-06-25T06:46:41.931Z,4.60
2019-06-25T06:49:11.102Z,4.80
2019-06-25T06:51:40.234Z,5.00
2019-06-25T06:54:09.337Z,5.07
2019-06-25T06:56:38.418Z,5.30
2019-06-25T06:59:07.460Z,5.00
2019-06-25T07:01:36.497Z,5.33
2019-06-25T07:04:05.656Z,4.33
2019-06-25T07:06:34.607Z,4.37
2019-06-25T07:09:03.526Z,4.40
2019-06-25T07:11:32.631Z,4.27
2019-06-25T07:14:01.864Z,5.03
2019-06-25T07:16:30.902Z,5.00
2019-06-25T07:18:59.935Z,4.70
2019-06-25T07:21:28.872Z,4.60
2019-06-25T07:23:57.853Z,4.17
2019-06-25T07:26:26.903Z,4.10
2019-06-25T07:28:55.826Z,3.80
2019-06-25T07:31:24.392Z,4.03
2019-06-25T07:34:08.323Z,4.70
2019-06-25T07:36:24.358Z,4.17
2019-06-25T07:38:53.353Z,4.20
2019-06-25T07:41:22.497Z,4.30
2019-06-25T07:43:51.544Z,3.73
2019-06-25T07:46:20.454Z,3.60
2019-06-25T07:48:49.532Z,4.40
2019-06-25T07:51:18.141Z,4.30
2019-06-25T07:53:47.178Z,4.20
2019-06-25T07:56:16.240Z,3.60
2019-06-25T07:58:45.302Z,3.80
2019-06-25T08:01:14.723Z,3.00
2019-06-25T08:03:43.851Z,3.20
2019-06-25T08:06:12.896Z,4.37
2019-06-25T08:08:42.231Z,3.50
2019-06-25T08:11:11.322Z,3.40
2019-06-25T08:13:39.960Z,3.50
2019-06-25T08:16:09.055Z,3.50
2019-06-25T08:18:38.093Z,3.27
2019-06-25T08:21:07.144Z,3.00
2019-06-25T08:23:36.182Z,3.90
2019-06-25T08:26:05.189Z,3.20
2019-06-25T08:28:34.394Z,3.33
2019-06-25T08:31:03.647Z,3.30
2019-06-25T08:33:32.993Z,3.93
2019-06-25T08:36:02.170Z,4.00
2019-06-25T08:38:31.113Z,3.70
2019-06-25T08:41:00.278Z,3.30
2019-06-25T08:43:30.465Z,3.10
2019-06-25T08:45:59.964Z,3.43
2019-06-25T08:48:29.075Z,3.63
2019-06-25T08:50:58.068Z,3.90
2019-06-25T08:53:27.185Z,3.17
2019-06-25T08:55:55.721Z,3.40
2019-06-25T08:58:24.709Z,3.47
2019-06-25T09:00:53.745Z,3.77
2019-06-25T09:03:22.659Z,3.40
2019-06-25T09:05:51.596Z,3.43
2019-06-25T09:08:20.675Z,3.20
2019-06-25T09:10:50.393Z,3.10
2019-06-25T09:13:19.323Z,2.50
2019-06-25T09:15:48.355Z,2.80
2019-06-25T09:18:17.319Z,2.93
2019-06-25T09:20:46.299Z,2.90
2019-06-25T09:23:15.351Z,2.70
2019-06-25T09:25:44.402Z,4.10
2019-06-25T09:28:13.427Z,2.70
2019-06-25T09:30:42.588Z,3.00
2019-06-25T09:33:11.284Z,3.20
2019-06-25T09:35:40.295Z,2.60
2019-06-25T09:38:09.351Z,2.67
2019-06-25T09:40:37.037Z,2.63
2019-06-25T09:43:04.723Z,3.20
2019-06-25T09:45:34.756Z,2.90
2019-06-25T09:48:04.575Z,2.50
2019-06-25T09:50:33.635Z,2.67
2019-06-25T09:53:02.698Z,2.53
2019-06-25T09:55:31.235Z,2.70
2019-06-25T09:58:00.274Z,2.83
2019-06-25T10:00:37.341Z,2.50
2019-06-25T10:03:06.527Z,2.80
2019-06-25T10:05:35.591Z,2.93
2019-06-25T10:08:04.577Z,2.60
2019-06-25T10:10:33.655Z,3.00
2019-06-25T10:13:02.684Z,2.63
2019-06-25T10:15:31.913Z,2.67
2019-06-25T10:18:00.533Z,2.50
2019-06-25T10:20:29.499Z,2.10
2019-06-25T10:22:58.566Z,2.00
2019-06-25T10:25:27.548Z,1.90
2019-06-25T10:27:56.809Z,2.40
2019-06-25T10:30:32.010Z,2.27
2019-06-25T10:33:01.042Z,2.07
2019-06-25T10:35:30.110Z,2.27
2019-06-25T10:37:58.649Z,2.03
2019-06-25T10:40:27.789Z,2.47
2019-06-25T10:42:56.775Z,2.10
2019-06-25T10:45:25.799Z,1.90
2019-06-25T10:47:54.863Z,1.80
2019-06-25T10:50:23.903Z,2.67
2019-06-25T10:52:52.995Z,2.57
2019-06-25T10:55:21.973Z,2.30
2019-06-25T10:57:50.690Z,2.53
2019-06-25T11:00:26.044Z,2.77
2019-06-25T11:02:55.080Z,2.30
2019-06-25T11:05:24.147Z,3.00
2019-06-25T11:07:53.253Z,3.90
2019-06-25T11:10:22.648Z,2.30
2019-06-25T11:12:51.714Z,2.20
2019-06-25T11:15:20.788Z,2.50
2019-06-25T11:17:50.122Z,2.47
2019-06-25T11:20:18.970Z,2.77
2019-06-25T11:22:48.718Z,2.90
2019-06-25T11:25:17.689Z,2.70
2019-06-25T11:27:46.787Z,2.70
2019-06-25T11:30:15.987Z,2.73
2019-06-25T11:32:45.094Z,2.20
2019-06-25T11:35:14.193Z,2.57
2019-06-25T11:37:43.732Z,2.50
2019-06-25T11:40:14.061Z,2.40
2019-06-25T11:42:42.873Z,2.50
2019-06-25T11:45:11.985Z,2.90
2019-06-25T11:47:40.881Z,2.70
2019-06-25T11:50:09.920Z,2.43
2019-06-25T11:52:38.992Z,2.03
2019-06-25T11:55:08.153Z,2.80
2019-06-25T11:57:37.211Z,2.17
2019-06-25T12:00:05.802Z,2.23
2019-06-25T12:02:34.797Z,2.43
2019-06-25T12:05:03.829Z,2.30
2019-06-25T12:07:32.998Z,2.43
2019-06-25T12:10:01.996Z,2.27
2019-06-25T12:12:31.119Z,2.43
2019-06-25T12:15:00.354Z,2.33
2019-06-25T12:17:29.333Z,2.33
2019-06-25T12:19:58.342Z,2.23
2019-06-25T12:22:26.926Z,2.63
2019-06-25T12:24:55.982Z,2.53
2019-06-25T12:27:24.958Z,2.77
2019-06-25T12:29:53.905Z,1.80
2019-06-25T12:32:22.847Z,2.30
2019-06-25T12:34:51.796Z,1.93
2019-06-25T12:37:20.928Z,2.43
2019-06-25T12:39:49.982Z,2.47
2019-06-25T12:42:19.025Z,2.40
2019-06-25T12:44:47.485Z,2.57
2019-06-25T12:47:16.627Z,2.20
2019-06-25T12:49:45.694Z,2.50
2019-06-25T12:52:14.743Z,2.33
2019-06-25T12:54:43.849Z,2.43
2019-06-25T12:57:12.837Z,2.20
2019-06-25T12:59:41.934Z,1.93
2019-06-25T13:02:10.958Z,2.37
2019-06-25T13:04:40.053Z,2.50
2019-06-25T13:07:24.588Z,2.50
2019-06-25T13:09:39.284Z,2.60
2019-06-25T13:12:08.360Z,1.90
2019-06-25T13:14:37.380Z,2.53
2019-06-25T13:17:06.477Z,2.13
2019-06-25T13:19:35.396Z,2.60
2019-06-25T13:22:05.260Z,3.07
2019-06-25T13:24:34.310Z,2.60
2019-06-25T13:27:03.375Z,2.20
2019-06-25T13:29:32.252Z,2.53
2019-06-25T13:32:01.324Z,3.10
2019-06-25T13:34:30.596Z,2.73
2019-06-25T13:36:59.636Z,2.53
2019-06-25T13:39:28.537Z,2.47
2019-06-25T13:42:04.845Z,2.73
2019-06-25T13:44:28.433Z,2.77
2019-06-25T13:46:57.588Z,3.20
2019-06-25T13:49:26.641Z,2.80
2019-06-25T13:51:55.274Z,3.00
2019-06-25T13:54:24.374Z,2.93
2019-06-25T13:56:53.394Z,3.00
2019-06-25T13:59:22.445Z,3.23
2019-06-25T14:01:51.573Z,2.73
2019-06-25T14:04:20.629Z,2.87
2019-06-25T14:06:49.694Z,2.77
2019-06-25T14:09:18.713Z,2.90
2019-06-25T14:11:47.701Z,2.93
2019-06-25T14:14:16.223Z,3.23
2019-06-25T14:16:45.123Z,2.93
2019-06-25T14:19:14.194Z,2.63
2019-06-25T14:21:43.295Z,2.90
2019-06-25T14:24:12.353Z,2.80
2019-06-25T14:26:41.471Z,3.17
2019-06-25T14:29:10.809Z,2.30
2019-06-25T14:31:40.096Z,3.33
2019-06-25T14:34:08.690Z,3.03
2019-06-25T14:36:37.749Z,3.13
2019-06-25T14:39:07.493Z,2.90
2019-06-25T14:41:36.464Z,2.63
2019-06-25T14:44:05.378Z,2.70
2019-06-25T14:46:34.353Z,3.10
2019-06-25T14:49:03.502Z,2.83
2019-06-25T14:51:32.704Z,3.33
2019-06-25T14:54:01.730Z,3.43
2019-06-25T14:56:30.244Z,2.50
2019-06-25T14:58:59.645Z,2.70
2019-06-25T15:01:28.816Z,2.87
2019-06-25T15:03:57.810Z,2.80
2019-06-25T15:06:26.866Z,2.40
2019-06-25T15:08:55.945Z,2.50
2019-06-25T15:11:25.044Z,2.73
2019-06-25T15:13:54.029Z,2.83
2019-06-25T15:16:23.127Z,2.80
2019-06-25T15:18:51.683Z,2.33
2019-06-25T15:21:20.651Z,3.07
2019-06-25T15:23:49.628Z,2.93
2019-06-25T15:26:18.637Z,2.90
2019-06-25T15:28:47.736Z,3.00
2019-06-25T15:31:16.758Z,2.60
2019-06-25T15:33:45.725Z,2.60
2019-06-25T15:36:14.698Z,3.37
2019-06-25T15:38:47.622Z,2.80
2019-06-25T15:41:13.960Z,2.67
2019-06-25T15:43:43.658Z,2.80
2019-06-25T15:46:12.640Z,2.83
2019-06-25T15:48:44.200Z,2.80
2019-06-25T15:51:12.419Z,3.00
2019-06-25T15:53:41.397Z,2.73
2019-06-25T15:56:10.553Z,3.03
2019-06-25T15:58:39.676Z,2.43
2019-06-25T16:01:08.704Z,3.20
2019-06-25T16:03:37.333Z,3.10
2019-06-25T16:06:06.392Z,3.33
2019-06-25T16:08:35.550Z,2.93
2019-06-25T16:11:04.535Z,3.33
2019-06-25T16:13:33.538Z,3.00
2019-06-25T16:16:02.588Z,2.90
2019-06-25T16:18:31.575Z,3.30
2019-06-25T16:21:00.510Z,2.77
2019-06-25T16:23:29.473Z,3.50
2019-06-25T16:25:58.448Z,2.90
2019-06-25T16:28:27.413Z,2.87
2019-06-25T16:30:56.374Z,2.90
2019-06-25T16:33:25.483Z,2.70
2019-06-25T16:35:54.569Z,3.20
2019-06-25T16:38:31.073Z,2.80
2019-06-25T16:40:54.442Z,2.80
2019-06-25T16:43:23.638Z,2.97
2019-06-25T16:46:00.158Z,2.70
2019-06-25T16:48:23.316Z,2.80
2019-06-25T16:50:52.383Z,2.80
2019-06-25T16:53:21.419Z,3.30
2019-06-25T16:55:50.738Z,2.90
2019-06-25T16:58:19.719Z,2.90
2019-06-25T17:00:48.777Z,3.13
2019-06-25T17:03:17.952Z,3.40
2019-06-25T17:05:47.098Z,2.87
2019-06-25T17:08:16.250Z,3.53
2019-06-25T17:10:45.306Z,2.77
2019-06-25T17:13:14.742Z,2.83
2019-06-25T17:15:43.806Z,3.27
2019-06-25T17:18:12.855Z,2.93
2019-06-25T17:20:41.880Z,2.83
2019-06-25T17:23:10.918Z,3.10
2019-06-25T17:25:39.983Z,3.00
2019-06-25T17:28:09.017Z,2.73
2019-06-25T17:30:37.568Z,3.30
2019-06-25T17:33:06.623Z,2.60
2019-06-25T17:35:35.794Z,2.60
2019-06-25T17:38:04.814Z,3.30
2019-06-25T17:40:33.972Z,3.53
2019-06-25T17:43:02.966Z,3.30
2019-06-25T17:45:32.046Z,4.10
2019-06-25T17:48:01.089Z,3.40
2019-06-25T17:50:30.093Z,3.30
2019-06-25T17:52:59.139Z,3.50
2019-06-25T17:55:28.178Z,3.27
2019-06-25T17:57:57.326Z,3.27
2019-06-25T18:00:26.704Z,3.50
2019-06-25T18:02:55.770Z,3.40
2019-06-25T18:05:25.261Z,3.63
2019-06-25T18:07:54.314Z,3.10
2019-06-25T18:10:23.512Z,3.20
2019-06-25T18:12:54.086Z,3.60
2019-06-25T18:15:23.220Z,3.30
2019-06-25T18:17:52.150Z,3.70
2019-06-25T18:20:21.288Z,3.53
2019-06-25T18:22:50.389Z,3.47
2019-06-25T18:25:19.471Z,3.47
2019-06-25T18:27:48.560Z,3.43
2019-06-25T18:30:17.227Z,3.90
2019-06-25T18:32:46.232Z,3.90
2019-06-25T18:35:15.278Z,4.10
2019-06-25T18:37:44.333Z,4.50
2019-06-25T18:40:23.300Z,4.60
2019-06-25T18:42:44.591Z,4.43
2019-06-25T18:45:14.904Z,3.80
2019-06-25T18:47:43.941Z,4.43
2019-06-25T18:50:13.299Z,4.77
2019-06-25T18:52:41.834Z,4.03
2019-06-25T18:55:10.871Z,4.40
2019-06-25T18:57:39.903Z,4.37
2019-06-25T19:00:09.174Z,4.80
2019-06-25T19:02:37.866Z,7.03
2019-06-25T19:05:07.052Z,5.50
2019-06-25T19:07:36.112Z,4.73
2019-06-25T19:10:05.110Z,5.03
2019-06-25T19:12:33.554Z,4.80
2019-06-25T19:15:02.709Z,4.60
2019-06-25T19:17:31.704Z,5.23
2019-06-25T19:20:00.724Z,4.50
2019-06-25T19:22:29.983Z,5.63
2019-06-25T19:24:58.967Z,4.80
2019-06-25T19:27:27.615Z,6.40
2019-06-25T19:29:56.470Z,6.10
2019-06-25T19:32:25.520Z,6.20
2019-06-25T19:34:54.543Z,6.57
2019-06-25T19:37:23.531Z,6.83
2019-06-25T19:39:52.512Z,5.50
2019-06-25T19:42:21.668Z,6.70
2019-06-25T19:44:50.859Z,6.60
2019-06-25T19:47:20.060Z,5.93
2019-06-25T19:49:49.064Z,5.97
2019-06-25T19:52:18.062Z,6.20
2019-06-25T19:54:47.069Z,7.20
2019-06-25T19:57:15.620Z,6.23
2019-06-25T19:59:44.542Z,6.20
2019-06-25T20:02:13.568Z,6.40
2019-06-25T20:04:42.599Z,7.10
2019-06-25T20:07:11.610Z,6.90
2019-06-25T20:09:40.759Z,6.63
2019-06-25T20:12:09.771Z,6.60
2019-06-25T20:14:38.874Z,6.10
2019-06-25T20:17:07.914Z,6.80
2019-06-25T20:19:37.014Z,7.30
2019-06-25T20:22:06.244Z,5.57
2019-06-25T20:24:35.401Z,7.37
2019-06-25T20:27:04.427Z,6.10
2019-06-25T20:29:33.358Z,6.13
2019-06-25T20:32:02.257Z,6.70
2019-06-25T20:34:31.366Z,6.57
2019-06-25T20:37:00.312Z,6.50
2019-06-25T20:39:29.362Z,6.57
2019-06-25T20:41:58.409Z,6.37
2019-06-25T20:44:27.413Z,6.80
2019-06-25T20:46:56.365Z,6.57
2019-06-25T20:49:25.431Z,7.87
2019-06-25T20:51:54.589Z,6.80
2019-06-25T20:54:23.422Z,6.90
2019-06-25T20:56:52.580Z,6.17
2019-06-25T20:59:21.621Z,7.40
2019-06-25T21:01:50.189Z,6.83
2019-06-25T21:04:19.393Z,7.63
2019-06-25T21:06:48.483Z,8.00
2019-06-25T21:09:17.673Z,7.23
2019-06-25T21:11:48.704Z,7.93
2019-06-25T21:14:17.428Z,6.60
2019-06-25T21:16:46.492Z,7.10
2019-06-25T21:19:15.560Z,6.50
2019-06-25T21:21:44.022Z,6.77
2019-06-25T21:24:12.980Z,6.47
2019-06-25T21:26:41.940Z,7.50
2019-06-25T21:29:10.998Z,7.83
2019-06-25T21:31:40.103Z,7.83
2019-06-25T21:34:09.105Z,7.37
2019-06-25T21:36:38.221Z,6.90
2019-06-25T21:39:07.703Z,7.40
2019-06-25T21:41:36.668Z,7.50
2019-06-25T21:44:05.635Z,6.93
2019-06-25T21:46:34.634Z,7.27
2019-06-25T21:49:03.673Z,9.40
2019-06-25T21:51:32.696Z,7.30
2019-06-25T21:54:01.779Z,7.40
2019-06-25T21:56:30.733Z,7.87
2019-06-25T21:58:59.676Z,6.80
2019-06-25T22:01:30.814Z,6.73
2019-06-25T22:03:59.774Z,7.80
2019-06-25T22:06:28.363Z,7.47
2019-06-25T22:08:57.495Z,7.87
2019-06-25T22:11:26.514Z,7.87
2019-06-25T22:13:55.492Z,8.27
2019-06-25T22:16:24.434Z,8.60
2019-06-25T22:18:53.425Z,8.17
2019-06-25T22:21:22.684Z,8.67
2019-06-25T22:23:51.550Z,8.70
2019-06-25T22:26:20.302Z,8.87
2019-06-25T22:28:48.738Z,8.63
2019-06-25T22:31:17.438Z,7.93
2019-06-25T22:33:46.453Z,7.87
2019-06-25T22:36:15.599Z,8.97
2019-06-25T22:38:44.604Z,8.33
2019-06-25T22:41:13.679Z,7.33
2019-06-25T22:43:42.616Z,8.03
2019-06-25T22:46:11.768Z,9.10
2019-06-25T22:48:40.690Z,7.90
2019-06-25T22:51:09.075Z,8.73
2019-06-25T22:53:38.089Z,7.37
2019-06-25T22:56:07.551Z,9.23
2019-06-25T22:58:36.428Z,8.40
2019-06-25T23:01:05.484Z,8.83
2019-06-25T23:03:34.550Z,8.17
2019-06-25T23:06:03.632Z,8.00
2019-06-25T23:08:32.767Z,8.03
2019-06-25T23:11:01.609Z,9.07
2019-06-25T23:13:30.163Z,8.90
2019-06-25T23:15:59.269Z,8.30
2019-06-25T23:18:28.225Z,8.63
2019-06-25T23:20:57.273Z,7.90
2019-06-25T23:23:26.220Z,9.00
2019-06-25T23:25:55.165Z,7.70
2019-06-25T23:28:24.189Z,8.80
2019-06-25T23:30:53.324Z,8.73
2019-06-25T23:33:21.942Z,8.67
2019-06-25T23:35:50.788Z,9.00
2019-06-25T23:38:19.975Z,8.80
2019-06-25T23:40:48.995Z,8.47
2019-06-25T23:43:18.052Z,9.07
2019-06-25T23:45:47.060Z,9.60
2019-06-25T23:48:16.142Z,9.20
2019-06-25T23:50:45.218Z,10.03
2019-06-25T23:53:14.284Z,8.80
2019-06-25T23:55:42.786Z,8.70
2019-06-25T23:58:11.802Z,8.30
